Time;durP1;ratioP1;P1;durP2;ratioP2;P2;SDS_P1;SDS_P2;PMS_P1;PMS_P2;Temp;Humidity;BMP_temperature;BMP_pressure;BME280_temperature;BME280_humidity;BME280_pressure;Samples;Min_cycle;Max_cycle;Signal;HPM_P1;HPM_P2
2023/01/20 00:01:53;;;;;;;;;;;15.70;80.10;;;;;;5046050;28;43085;-81
2023/01/20 00:04:19;;;;;;;;;;;15.70;80.60;;;;;;5046654;28;42906;-81
2023/01/20 00:06:45;;;;;;;;;;;15.70;80.50;;;;;;5045735;28;42915;-81
2023/01/20 00:09:13;;;;;;;;;;;15.70;80.10;;;;;;5045027;28;42775;-82
2023/01/20 00:11:38;;;;;;;;;;;15.80;80.80;;;;;;5045406;28;43003;-80
2023/01/20 00:14:04;;;;;;;;;;;15.80;80.80;;;;;;5045402;28;43062;-77
2023/01/20 00:16:30;;;;;;;;;;;15.80;80.20;;;;;;5046086;28;42992;-79
2023/01/20 00:18:56;;;;;;;;;;;15.70;80.00;;;;;;5045577;28;42932;-81
2023/01/20 00:21:22;;;;;;;;;;;15.70;80.10;;;;;;5043334;28;42932;-79
2023/01/20 00:23:48;;;;;;;;;;;15.70;80.60;;;;;;5045631;28;42942;-82
2023/01/20 00:26:15;;;;;;;;;;;15.80;80.60;;;;;;5045119;28;43706;-77
2023/01/20 00:28:41;;;;;;;;;;;15.90;80.70;;;;;;5026301;28;43069;-82
2023/01/20 00:31:12;;;;;;;;;;;15.60;80.60;;;;;;5045229;28;42988;-82
2023/01/20 00:33:38;;;;;;;;;;;15.60;79.70;;;;;;5044454;28;43078;-80
2023/01/20 00:36:03;;;;;;;;;;;15.80;80.30;;;;;;5042865;28;43007;-81
2023/01/20 00:38:29;;;;;;;;;;;15.60;80.20;;;;;;5043060;28;43019;-81
2023/01/20 00:40:54;;;;;;;;;;;15.50;80.70;;;;;;5045178;28;43143;-80
2023/01/20 00:43:20;;;;;;;;;;;15.50;80.30;;;;;;5042979;28;43122;-78
2023/01/20 00:45:45;;;;;;;;;;;15.80;80.20;;;;;;5045152;28;43063;-78
2023/01/20 00:48:11;;;;;;;;;;;15.70;80.80;;;;;;5045491;28;43023;-78
2023/01/20 00:50:37;;;;;;;;;;;15.80;80.40;;;;;;5045296;28;43848;-81
2023/01/20 00:53:02;;;;;;;;;;;15.80;80.40;;;;;;5044690;28;42913;-77
2023/01/20 00:55:27;;;;;;;;;;;15.90;80.20;;;;;;5044460;28;43297;-82
2023/01/20 00:57:53;;;;;;;;;;;15.70;80.50;;;;;;5045527;28;42853;-77
2023/01/20 01:00:19;;;;;;;;;;;15.80;80.10;;;;;;5045181;28;44014;-79
2023/01/20 01:02:44;;;;;;;;;;;15.80;80.80;;;;;;5044937;28;42925;-81
2023/01/20 01:05:09;;;;;;;;;;;15.80;80.80;;;;;;5042918;28;43877;-81
2023/01/20 01:07:35;;;;;;;;;;;15.80;80.20;;;;;;5030555;28;43014;-82
2023/01/20 01:10:00;;;;;;;;;;;15.70;81.20;;;;;;5045007;28;42944;-78
2023/01/20 01:12:26;;;;;;;;;;;15.80;80.20;;;;;;5043519;28;43156;-81
2023/01/20 01:14:51;;;;;;;;;;;15.70;80.60;;;;;;5044398;28;43555;-79
2023/01/20 01:17:17;;;;;;;;;;;15.80;80.80;;;;;;5040535;28;42980;-79
2023/01/20 01:19:42;;;;;;;;;;;15.70;80.80;;;;;;5033867;28;43530;-82
2023/01/20 01:22:08;;;;;;;;;;;15.80;80.90;;;;;;5044706;28;43012;-78
2023/01/20 01:24:33;;;;;;;;;;;15.70;81.00;;;;;;5043568;28;42995;-79
2023/01/20 01:26:59;;;;;;;;;;;15.70;80.40;;;;;;5043933;28;43145;-82
2023/01/20 01:29:24;;;;;;;;;;;15.80;80.40;;;;;;5044715;28;44235;-82
2023/01/20 01:31:50;;;;;;;;;;;15.70;81.10;;;;;;5044407;28;42888;-80
2023/01/20 01:34:15;;;;;;;;;;;15.70;80.90;;;;;;5044792;28;43022;-78
2023/01/20 01:36:41;;;;;;;;;;;15.80;80.90;;;;;;5043324;28;43122;-81
2023/01/20 01:39:06;;;;;;;;;;;16.20;80.60;;;;;;5044092;28;43035;-82
2023/01/20 01:41:32;;;;;;;;;;;15.80;81.10;;;;;;5044301;28;42797;-77
2023/01/20 01:44:07;;;;;;;;;;;15.90;80.80;;;;;;5044401;28;43987;-78
2023/01/20 01:46:33;;;;;;;;;;;15.80;80.70;;;;;;5042669;28;42947;-82
2023/01/20 01:49:01;;;;;;;;;;;16.10;80.50;;;;;;5025990;28;44459;-78
2023/01/20 01:51:32;;;;;;;;;;;16.10;80.30;;;;;;5042884;28;42955;-79
2023/01/20 01:54:01;;;;;;;;;;;16.10;79.60;;;;;;5044063;28;43336;-80
2023/01/20 01:56:27;;;;;;;;;;;16.20;79.50;;;;;;5043068;28;43040;-77
2023/01/20 01:58:54;;;;;;;;;;;16.10;80.20;;;;;;5044115;28;44003;-78
2023/01/20 02:01:20;;;;;;;;;;;16.10;79.40;;;;;;5024867;28;43006;-80
2023/01/20 02:03:53;;;;;;;;;;;16.10;80.00;;;;;;5043771;28;43564;-77
2023/01/20 02:06:20;;;;;;;;;;;15.90;79.40;;;;;;5044101;28;42993;-81
2023/01/20 02:08:45;;;;;;;;;;;16.00;80.40;;;;;;5044110;28;43455;-80
2023/01/20 02:11:11;;;;;;;;;;;15.90;80.10;;;;;;5044238;28;42827;-83
2023/01/20 02:13:37;;;;;;;;;;;16.10;80.10;;;;;;5044358;28;43386;-78
2023/01/20 02:16:21;;;;;;;;;;;16.00;80.10;;;;;;5039450;28;43117;-81
2023/01/20 02:18:53;;;;;;;;;;;16.10;79.20;;;;;;5044133;28;42932;-78
2023/01/20 02:21:30;;;;;;;;;;;16.00;80.40;;;;;;5041350;28;42883;-82
2023/01/20 02:23:58;;;;;;;;;;;15.90;79.70;;;;;;5042980;28;43579;-80
2023/01/20 02:26:30;;;;;;;;;;;15.80;79.90;;;;;;5044256;28;42832;-79
2023/01/20 02:28:58;;;;;;;;;;;15.80;80.00;;;;;;5041213;28;43865;-82
2023/01/20 02:31:24;;;;;;;;;;;15.80;80.00;;;;;;5043777;28;43014;-83
2023/01/20 02:34:07;;;;;;;;;;;15.80;81.00;;;;;;5042638;28;43665;-81
2023/01/20 02:36:44;;;;;;;;;;;15.70;80.10;;;;;;5043263;28;42966;-81
2023/01/20 02:39:17;;;;;;;;;;;15.80;81.10;;;;;;5043953;28;43634;-80
2023/01/20 02:42:01;;;;;;;;;;;15.70;80.20;;;;;;5043845;28;42970;-81
2023/01/20 02:44:33;;;;;;;;;;;15.90;80.40;;;;;;5043180;28;42960;-83
2023/01/20 02:47:01;;;;;;;;;;;15.70;81.30;;;;;;5043359;28;42960;-81
2023/01/20 02:49:27;;;;;;;;;;;;;;;;;;5043833;28;42958;-82
2023/01/20 02:51:57;;;;;;;;;;;15.70;80.70;;;;;;5044563;28;43294;-78
2023/01/20 02:54:24;;;;;;;;;;;15.70;81.00;;;;;;5047448;28;43064;-83
2023/01/20 02:56:50;;;;;;;;;;;15.80;81.00;;;;;;5047223;28;42874;-81
2023/01/20 02:59:23;;;;;;;;;;;15.90;81.20;;;;;;5047528;28;43049;-78
2023/01/20 03:01:54;;;;;;;;;;;15.80;80.20;;;;;;5027477;28;43196;-83
2023/01/20 03:04:22;;;;;;;;;;;16.00;81.10;;;;;;5046725;28;43064;-79
2023/01/20 03:06:52;;;;;;;;;;;15.80;80.90;;;;;;5047373;28;42893;-83
2023/01/20 03:09:20;;;;;;;;;;;16.00;81.20;;;;;;5047067;28;42912;-81
2023/01/20 03:11:51;;;;;;;;;;;15.80;81.20;;;;;;5047005;28;42886;-82
2023/01/20 03:14:16;;;;;;;;;;;15.70;80.10;;;;;;5047104;28;42968;-80
2023/01/20 03:16:42;;;;;;;;;;;15.70;81.10;;;;;;5046706;28;43097;-83
2023/01/20 03:19:08;;;;;;;;;;;15.50;81.00;;;;;;5046797;28;42989;-81
2023/01/20 03:21:34;;;;;;;;;;;15.80;80.80;;;;;;5047129;28;42843;-82
2023/01/20 03:24:01;;;;;;;;;;;15.70;81.30;;;;;;5047309;28;43560;-81
2023/01/20 03:26:26;;;;;;;;;;;15.90;81.40;;;;;;5047162;28;43017;-82
2023/01/20 03:28:53;;;;;;;;;;;15.70;81.30;;;;;;5047032;28;43891;-82
2023/01/20 03:31:21;;;;;;;;;;;15.80;80.80;;;;;;5047115;28;42951;-81
2023/01/20 03:33:47;;;;;;;;;;;15.90;81.00;;;;;;5046699;28;43535;-77
2023/01/20 03:36:13;;;;;;;;;;;;;;;;;;5046157;28;42952;-82
2023/01/20 03:38:38;;;;;;;;;;;15.90;80.50;;;;;;5047462;28;44024;-82
2023/01/20 03:41:10;;;;;;;;;;;15.70;81.10;;;;;;5046344;28;42985;-79
2023/01/20 03:44:08;;;;;;;;;;;16.10;81.10;;;;;;5046541;28;44109;-78
2023/01/20 03:46:42;;;;;;;;;;;15.80;80.30;;;;;;4991325;28;43043;-82
2023/01/20 03:49:11;;;;;;;;;;;15.60;80.30;;;;;;5046418;28;42895;-81
2023/01/20 03:51:43;;;;;;;;;;;15.80;80.40;;;;;;5046814;28;42982;-82
2023/01/20 03:54:11;;;;;;;;;;;15.80;81.30;;;;;;5046146;28;43022;-77
2023/01/20 03:56:40;;;;;;;;;;;15.80;80.80;;;;;;5046559;28;42866;-79
2023/01/20 03:59:06;;;;;;;;;;;15.80;81.30;;;;;;5046311;28;44061;-78
2023/01/20 04:01:34;;;;;;;;;;;15.80;80.80;;;;;;5046333;28;43020;-81
2023/01/20 04:04:01;;;;;;;;;;;15.90;81.50;;;;;;5045557;28;43472;-82
2023/01/20 04:06:28;;;;;;;;;;;15.70;81.30;;;;;;5046017;28;43038;-81
2023/01/20 04:08:55;;;;;;;;;;;15.80;81.30;;;;;;5045417;28;43607;-83
2023/01/20 04:11:20;;;;;;;;;;;15.60;81.20;;;;;;5027176;28;42889;-82
2023/01/20 04:13:46;;;;;;;;;;;15.80;80.80;;;;;;5038001;28;43809;-79
2023/01/20 04:16:13;;;;;;;;;;;15.70;80.70;;;;;;5039992;28;42956;-81
2023/01/20 04:18:40;;;;;;;;;;;15.70;81.40;;;;;;5045710;28;43136;-79
2023/01/20 04:21:07;;;;;;;;;;;15.80;81.10;;;;;;5045916;28;42931;-83
2023/01/20 04:23:38;;;;;;;;;;;16.00;81.40;;;;;;5045686;28;43057;-81
2023/01/20 04:26:04;;;;;;;;;;;15.70;80.40;;;;;;5045710;28;42923;-80
2023/01/20 04:28:31;;;;;;;;;;;15.70;81.20;;;;;;5045082;28;43643;-77
2023/01/20 04:30:56;;;;;;;;;;;15.70;81.20;;;;;;5045881;28;43015;-81
2023/01/20 04:33:22;;;;;;;;;;;15.80;80.90;;;;;;5027357;28;43046;-82
2023/01/20 04:35:47;;;;;;;;;;;15.80;80.80;;;;;;5045172;28;42876;-80
2023/01/20 04:38:13;;;;;;;;;;;15.90;81.00;;;;;;5038268;28;43847;-82
2023/01/20 04:40:38;;;;;;;;;;;16.00;80.20;;;;;;5040176;28;42992;-77
2023/01/20 04:43:04;;;;;;;;;;;15.80;80.80;;;;;;5045280;28;42810;-81
2023/01/20 04:45:29;;;;;;;;;;;15.80;80.50;;;;;;5045121;28;42997;-81
2023/01/20 04:47:55;;;;;;;;;;;15.80;80.70;;;;;;5045516;28;43516;-80
2023/01/20 04:50:20;;;;;;;;;;;15.70;81.30;;;;;;5045175;28;42872;-81
2023/01/20 04:52:46;;;;;;;;;;;15.70;81.50;;;;;;5044412;28;42952;-80
2023/01/20 04:55:11;;;;;;;;;;;15.70;81.40;;;;;;5041678;28;44256;-79
2023/01/20 04:57:37;;;;;;;;;;;15.60;81.40;;;;;;5033514;28;43603;-78
2023/01/20 05:00:03;;;;;;;;;;;15.80;81.60;;;;;;5032135;28;43049;-77
2023/01/20 05:02:29;;;;;;;;;;;15.60;81.30;;;;;;5024276;28;44260;-82
2023/01/20 05:04:54;;;;;;;;;;;15.60;81.50;;;;;;5035767;28;42965;-82
2023/01/20 05:07:20;;;;;;;;;;;15.70;81.50;;;;;;5033799;28;42925;-83
2023/01/20 05:09:46;;;;;;;;;;;15.60;81.50;;;;;;5027460;28;43016;-83
2023/01/20 05:12:11;;;;;;;;;;;15.60;81.50;;;;;;5034061;28;43401;-83
2023/01/20 05:14:37;;;;;;;;;;;15.80;81.60;;;;;;5040252;28;43007;-83
2023/01/20 05:17:02;;;;;;;;;;;15.80;81.50;;;;;;5039679;28;43568;-81
2023/01/20 05:19:28;;;;;;;;;;;15.80;81.70;;;;;;5040707;28;43925;-77
2023/01/20 05:21:53;;;;;;;;;;;15.70;81.60;;;;;;5036204;28;43543;-79
2023/01/20 05:24:19;;;;;;;;;;;15.70;81.70;;;;;;5034847;28;43198;-84
2023/01/20 05:26:44;;;;;;;;;;;15.40;81.40;;;;;;5037892;28;43446;-84
2023/01/20 05:29:10;;;;;;;;;;;15.50;81.50;;;;;;5037743;28;42964;-78
2023/01/20 05:31:37;;;;;;;;;;;15.60;81.20;;;;;;5031985;28;42974;-77
2023/01/20 05:34:03;;;;;;;;;;;16.00;81.90;;;;;;5033471;28;43023;-77
2023/01/20 05:36:29;;;;;;;;;;;15.70;81.80;;;;;;5025434;28;43090;-79
2023/01/20 05:38:55;;;;;;;;;;;;;;;;;;5042735;28;42972;-77
2023/01/20 05:41:20;;;;;;;;;;;15.70;81.70;;;;;;5042951;28;44140;-78
2023/01/20 05:43:46;;;;;;;;;;;15.50;82.10;;;;;;5042127;28;43323;-77
2023/01/20 05:46:12;;;;;;;;;;;15.80;81.70;;;;;;5044053;28;44063;-77
2023/01/20 05:48:38;;;;;;;;;;;15.70;82.10;;;;;;5039824;28;43011;-84
2023/01/20 05:51:03;;;;;;;;;;;15.80;82.10;;;;;;5043062;28;42956;-78
2023/01/20 05:53:29;;;;;;;;;;;15.60;82.00;;;;;;5043853;28;43071;-78
2023/01/20 05:55:59;;;;;;;;;;;15.70;80.10;;;;;;5042787;28;43864;-81
2023/01/20 05:58:24;;;;;;;;;;;15.80;80.60;;;;;;5044147;28;42897;-84
2023/01/20 06:00:50;;;;;;;;;;;15.80;80.70;;;;;;5039497;28;43003;-84
2023/01/20 06:03:15;;;;;;;;;;;15.80;80.50;;;;;;5042871;28;42924;-85
2023/01/20 06:05:41;;;;;;;;;;;15.70;81.10;;;;;;5041598;28;43111;-80
2023/01/20 06:08:06;;;;;;;;;;;15.70;80.70;;;;;;5044478;28;42937;-86
2023/01/20 06:10:31;;;;;;;;;;;15.80;81.20;;;;;;5044299;28;43725;-87
2023/01/20 06:12:57;;;;;;;;;;;15.60;80.50;;;;;;5038290;28;42886;-85
2023/01/20 06:15:23;;;;;;;;;;;15.80;80.90;;;;;;5042698;28;43040;-85
2023/01/20 06:17:49;;;;;;;;;;;15.60;80.50;;;;;;5043573;28;43038;-88
2023/01/20 06:20:15;;;;;;;;;;;15.60;80.50;;;;;;5043402;28;42954;-77
2023/01/20 06:22:40;;;;;;;;;;;15.60;80.20;;;;;;5043758;28;42965;-82
2023/01/20 06:25:06;;;;;;;;;;;15.70;79.70;;;;;;5043748;28;43491;-84
2023/01/20 06:27:32;;;;;;;;;;;15.50;79.90;;;;;;5037374;28;43042;-83
2023/01/20 06:29:57;;;;;;;;;;;15.60;79.50;;;;;;5041617;28;42927;-78
2023/01/20 06:32:23;;;;;;;;;;;15.50;79.90;;;;;;5044106;28;43091;-80
2023/01/20 06:34:48;;;;;;;;;;;15.70;79.00;;;;;;5043456;28;43869;-82
2023/01/20 06:37:14;;;;;;;;;;;15.80;77.70;;;;;;5043422;28;42820;-82
2023/01/20 06:39:39;;;;;;;;;;;15.70;76.60;;;;;;5043344;28;42944;-79
2023/01/20 06:42:05;;;;;;;;;;;15.70;76.80;;;;;;5043903;28;42899;-85
2023/01/20 06:44:32;;;;;;;;;;;15.60;76.70;;;;;;5043748;28;43523;-84
2023/01/20 06:46:58;;;;;;;;;;;15.60;77.00;;;;;;5044492;28;42912;-85
2023/01/20 06:49:24;;;;;;;;;;;15.60;76.90;;;;;;5043518;28;42925;-85
2023/01/20 06:51:49;;;;;;;;;;;15.40;77.20;;;;;;5043687;28;42956;-82
2023/01/20 06:54:15;;;;;;;;;;;15.50;76.40;;;;;;5043779;28;43937;-82
2023/01/20 06:56:41;;;;;;;;;;;;;;;;;;5043882;28;43031;-85
2023/01/20 06:59:08;;;;;;;;;;;15.60;76.00;;;;;;5044150;28;43721;-80
2023/01/20 07:01:33;;;;;;;;;;;15.80;76.40;;;;;;5044193;28;42916;-82
2023/01/20 07:03:59;;;;;;;;;;;15.40;75.70;;;;;;5043809;28;42885;-78
2023/01/20 07:06:32;;;;;;;;;;;15.60;75.80;;;;;;5044163;28;43195;-79
2023/01/20 07:08:58;;;;;;;;;;;15.50;76.20;;;;;;5044293;28;42951;-80
2023/01/20 07:11:24;;;;;;;;;;;15.40;75.60;;;;;;5043664;28;42854;-79
2023/01/20 07:13:49;;;;;;;;;;;15.60;76.20;;;;;;5044074;28;43056;-82
2023/01/20 07:16:15;;;;;;;;;;;15.60;75.60;;;;;;5043706;28;43053;-84
2023/01/20 07:18:40;;;;;;;;;;;15.40;75.10;;;;;;5043878;28;43127;-84
2023/01/20 07:21:06;;;;;;;;;;;15.50;75.00;;;;;;5043474;28;43466;-82
2023/01/20 07:23:32;;;;;;;;;;;15.60;75.10;;;;;;5036599;28;43513;-79
2023/01/20 07:25:59;;;;;;;;;;;15.40;75.30;;;;;;5037135;28;43031;-83
2023/01/20 07:28:25;;;;;;;;;;;;;;;;;;5024595;28;44535;-84
2023/01/20 07:30:50;;;;;;;;;;;15.40;74.70;;;;;;5043071;28;42942;-84
2023/01/20 07:33:16;;;;;;;;;;;15.40;75.40;;;;;;5043778;28;44061;-76
2023/01/20 07:35:41;;;;;;;;;;;15.40;74.50;;;;;;5043925;28;42908;-79
2023/01/20 07:38:07;;;;;;;;;;;15.40;74.80;;;;;;5042616;28;43736;-82
2023/01/20 07:40:32;;;;;;;;;;;15.50;74.90;;;;;;5047265;28;43114;-78
2023/01/20 07:42:58;;;;;;;;;;;15.30;74.10;;;;;;5046087;28;42988;-77
2023/01/20 07:45:23;;;;;;;;;;;15.30;74.50;;;;;;5046523;28;43060;-77
2023/01/20 07:47:49;;;;;;;;;;;15.30;74.10;;;;;;5046688;28;43813;-77
2023/01/20 07:50:14;;;;;;;;;;;15.30;74.00;;;;;;5028947;28;43033;-78
2023/01/20 07:52:40;;;;;;;;;;;15.20;74.20;;;;;;5046737;28;42850;-84
2023/01/20 07:55:06;;;;;;;;;;;15.30;74.40;;;;;;5046643;28;42990;-83
2023/01/20 07:57:32;;;;;;;;;;;15.40;74.40;;;;;;5046726;28;43689;-81
2023/01/20 07:59:58;;;;;;;;;;;15.20;74.50;;;;;;5046933;28;43059;-81
2023/01/20 08:02:23;;;;;;;;;;;15.20;73.50;;;;;;5045954;28;43749;-84
2023/01/20 08:04:49;;;;;;;;;;;15.20;74.30;;;;;;5046644;28;42810;-78
2023/01/20 08:07:14;;;;;;;;;;;15.30;74.30;;;;;;5046080;28;43411;-77
2023/01/20 08:09:40;;;;;;;;;;;15.30;74.00;;;;;;5046323;28;43314;-77
2023/01/20 08:12:06;;;;;;;;;;;15.20;74.50;;;;;;5045901;28;42968;-83
2023/01/20 08:14:31;;;;;;;;;;;15.30;74.00;;;;;;5046772;28;42878;-83
2023/01/20 08:16:58;;;;;;;;;;;15.10;74.00;;;;;;5046563;28;43557;-77
2023/01/20 08:19:27;;;;;;;;;;;15.30;73.40;;;;;;5046564;28;42917;-77
2023/01/20 08:21:52;;;;;;;;;;;15.30;73.80;;;;;;5046503;28;42928;-83
2023/01/20 08:24:18;;;;;;;;;;;15.20;73.70;;;;;;5046438;28;42955;-79
2023/01/20 08:26:43;;;;;;;;;;;15.40;73.30;;;;;;5045557;28;42754;-84
2023/01/20 08:29:09;;;;;;;;;;;15.30;73.70;;;;;;5045946;28;43142;-77
2023/01/20 08:31:34;;;;;;;;;;;15.20;73.40;;;;;;5045456;28;42885;-80
2023/01/20 08:34:00;;;;;;;;;;;15.30;73.10;;;;;;5032958;28;42988;-85
2023/01/20 08:36:30;;;;;;;;;;;15.20;73.10;;;;;;5044616;28;43573;-79
2023/01/20 08:38:56;;;;;;;;;;;15.30;73.50;;;;;;5045735;28;42907;-79
2023/01/20 08:41:24;;;;;;;;;;;15.40;73.70;;;;;;5045705;28;42795;-82
2023/01/20 08:43:50;;;;;;;;;;;15.20;73.50;;;;;;5046457;28;42840;-85
2023/01/20 08:46:16;;;;;;;;;;;15.20;73.30;;;;;;5046067;28;43646;-80
2023/01/20 08:48:42;;;;;;;;;;;15.30;73.50;;;;;;5045898;28;42908;-78
2023/01/20 08:51:10;;;;;;;;;;;15.60;73.00;;;;;;5044611;28;43349;-85
2023/01/20 08:53:36;;;;;;;;;;;15.40;73.30;;;;;;5045753;28;42961;-84
2023/01/20 08:56:02;;;;;;;;;;;15.40;73.70;;;;;;5045305;28;42835;-84
2023/01/20 08:58:28;;;;;;;;;;;15.50;73.20;;;;;;5045271;28;42874;-85
2023/01/20 09:00:55;;;;;;;;;;;15.40;72.80;;;;;;5032397;28;42944;-84
2023/01/20 09:03:20;;;;;;;;;;;15.40;73.60;;;;;;5044490;28;43415;-85
2023/01/20 09:05:46;;;;;;;;;;;15.30;72.90;;;;;;5045492;28;44028;-85
2023/01/20 09:08:12;;;;;;;;;;;15.40;74.60;;;;;;5045408;28;42833;-81
2023/01/20 09:10:38;;;;;;;;;;;15.50;74.00;;;;;;5045375;28;42826;-79
2023/01/20 09:13:03;;;;;;;;;;;15.40;73.70;;;;;;5045569;28;42991;-80
2023/01/20 09:15:29;;;;;;;;;;;15.50;73.20;;;;;;5045660;28;44101;-79
2023/01/20 09:17:54;;;;;;;;;;;15.60;73.70;;;;;;5045379;28;42984;-83
2023/01/20 09:20:20;;;;;;;;;;;15.40;73.60;;;;;;5045320;28;43665;-83
2023/01/20 09:22:45;;;;;;;;;;;15.40;72.90;;;;;;5044444;28;42983;-82
2023/01/20 09:25:11;;;;;;;;;;;15.70;73.40;;;;;;5044539;28;43143;-79
2023/01/20 09:27:37;;;;;;;;;;;15.50;73.20;;;;;;5044870;28;42901;-78
2023/01/20 09:30:03;;;;;;;;;;;15.40;73.10;;;;;;5045739;28;42855;-78
2023/01/20 09:32:28;;;;;;;;;;;15.60;73.10;;;;;;5044657;28;42963;-81
2023/01/20 09:34:55;;;;;;;;;;;15.40;73.80;;;;;;5044248;28;42995;-77
2023/01/20 09:45:53;;;;;;;;;;;15.40;73.20;;;;;;5044438;28;43314;-77
2023/01/20 09:54:15;;;;;;;;;;;15.40;74.00;;;;;;5045249;28;42959;-86
2023/01/20 09:56:45;;;;;;;;;;;15.50;73.60;;;;;;5044916;28;42864;-86
2023/01/20 09:59:17;;;;;;;;;;;15.40;73.70;;;;;;5044839;28;42911;-86
2023/01/20 10:01:44;;;;;;;;;;;15.50;74.20;;;;;;5044148;28;44521;-79
2023/01/20 10:04:14;;;;;;;;;;;15.40;74.20;;;;;;5044702;28;43084;-81
2023/01/20 10:06:42;;;;;;;;;;;15.70;74.30;;;;;;5044201;28;43492;-83
2023/01/20 10:09:17;;;;;;;;;;;15.70;74.30;;;;;;5043921;28;42991;-85
2023/01/20 10:11:45;;;;;;;;;;;15.60;73.20;;;;;;5043511;28;43501;-85
2023/01/20 10:14:22;;;;;;;;;;;15.60;73.70;;;;;;5044476;28;42874;-85
2023/01/20 10:16:54;;;;;;;;;;;15.50;73.10;;;;;;5043748;28;42883;-84
2023/01/20 10:19:34;;;;;;;;;;;15.50;74.00;;;;;;5044771;28;42929;-78
2023/01/20 10:22:08;;;;;;;;;;;15.60;73.00;;;;;;5031827;28;42928;-84
2023/01/20 10:24:38;;;;;;;;;;;15.70;73.20;;;;;;5044276;28;43041;-79
2023/01/20 10:27:04;;;;;;;;;;;15.60;73.70;;;;;;5044092;28;43015;-80
2023/01/20 10:29:29;;;;;;;;;;;15.80;74.20;;;;;;5043760;28;42983;-78
2023/01/20 10:31:59;;;;;;;;;;;15.70;74.30;;;;;;5043447;28;43523;-85
2023/01/20 10:34:26;;;;;;;;;;;15.70;73.30;;;;;;5044109;28;43081;-81
2023/01/20 10:36:59;;;;;;;;;;;15.80;74.30;;;;;;5043020;28;43010;-79
2023/01/20 10:39:27;;;;;;;;;;;15.70;73.40;;;;;;5043902;28;42971;-84
2023/01/20 10:42:12;;;;;;;;;;;15.70;73.30;;;;;;5044130;28;43733;-86
2023/01/20 10:44:38;;;;;;;;;;;15.80;73.30;;;;;;5043736;28;43084;-82
2023/01/20 10:47:06;;;;;;;;;;;15.80;74.30;;;;;;5043969;28;43005;-78
2023/01/20 10:49:32;;;;;;;;;;;15.70;73.40;;;;;;5044578;28;43000;-85
2023/01/20 10:52:03;;;;;;;;;;;15.80;73.70;;;;;;5043974;28;43513;-84
2023/01/20 10:54:40;;;;;;;;;;;15.80;73.40;;;;;;5031853;28;42968;-84
2023/01/20 10:57:08;;;;;;;;;;;15.60;73.40;;;;;;5044131;28;42909;-82
2023/01/20 10:59:35;;;;;;;;;;;15.80;74.20;;;;;;5045136;28;42909;-79
2023/01/20 11:02:03;;;;;;;;;;;15.80;74.20;;;;;;5043676;28;42988;-79
2023/01/20 11:04:30;;;;;;;;;;;15.90;74.00;;;;;;5043853;28;42916;-79
2023/01/20 11:06:58;;;;;;;;;;;15.70;73.60;;;;;;5043285;28;43343;-78
2023/01/20 11:09:34;;;;;;;;;;;15.80;73.00;;;;;;5043449;28;42850;-80
2023/01/20 11:12:02;;;;;;;;;;;15.90;73.00;;;;;;5044301;28;42967;-79
2023/01/20 11:14:28;;;;;;;;;;;15.80;73.90;;;;;;5028061;28;42815;-82
2023/01/20 11:16:58;;;;;;;;;;;15.80;73.30;;;;;;5047543;28;43189;-78
2023/01/20 11:19:24;;;;;;;;;;;15.80;73.40;;;;;;5047683;28;42945;-82
2023/01/20 11:21:49;;;;;;;;;;;15.70;73.80;;;;;;5046876;28;42901;-78
2023/01/20 11:24:54;;;;;;;;;;;15.80;73.20;;;;;;5028958;28;42911;-85
2023/01/20 11:27:21;;;;;;;;;;;15.80;72.00;;;;;;4977137;28;43612;-79
2023/01/20 11:29:51;;;;;;;;;;;15.90;72.20;;;;;;4985316;28;43140;-85
2023/01/20 11:32:26;;;;;;;;;;;15.80;71.50;;;;;;4985234;28;43504;-78
2023/01/20 11:34:52;;;;;;;;;;;15.80;72.00;;;;;;4978551;28;43112;-84
2023/01/20 11:37:20;;;;;;;;;;;15.80;73.60;;;;;;4961645;28;43640;-79
2023/01/20 11:39:56;;;;;;;;;;;15.80;73.70;;;;;;4984804;28;43050;-84
2023/01/20 11:42:24;;;;;;;;;;;15.50;73.70;;;;;;4984918;28;43010;-79
2023/01/20 11:44:54;;;;;;;;;;;15.70;72.90;;;;;;4984767;28;42969;-79
2023/01/20 11:47:36;;;;;;;;;;;15.70;73.60;;;;;;4984798;28;44006;-84
2023/01/20 11:50:07;;;;;;;;;;;15.90;72.60;;;;;;4984011;28;42981;-85
2023/01/20 11:52:33;;;;;;;;;;;15.80;72.50;;;;;;4984569;28;43847;-79
2023/01/20 11:55:06;;;;;;;;;;;15.90;72.90;;;;;;4985060;28;42964;-78
2023/01/20 11:57:31;;;;;;;;;;;15.80;73.90;;;;;;4995069;28;43691;-79
2023/01/20 11:59:57;;;;;;;;;;;16.00;73.50;;;;;;5039197;28;42972;-84
2023/01/20 12:02:23;;;;;;;;;;;15.90;72.70;;;;;;5045576;28;43455;-79
2023/01/20 12:04:49;;;;;;;;;;;15.80;73.50;;;;;;5046688;28;43143;-78
2023/01/20 12:07:38;;;;;;;;;;;15.80;73.40;;;;;;5045920;28;42989;-85
2023/01/20 12:10:13;;;;;;;;;;;15.90;72.50;;;;;;5014573;28;42883;-81
2023/01/20 12:12:41;;;;;;;;;;;15.30;73.10;;;;;;5047181;28;42995;-83
2023/01/20 12:15:24;;;;;;;;;;;15.80;73.60;;;;;;5046355;28;42885;-84
2023/01/20 12:17:49;;;;;;;;;;;15.70;72.60;;;;;;5046291;28;43333;-84
2023/01/20 12:20:15;;;;;;;;;;;15.90;73.40;;;;;;5045806;28;43100;-85
2023/01/20 12:22:59;;;;;;;;;;;15.90;72.90;;;;;;5046060;28;42977;-80
2023/01/20 12:25:27;;;;;;;;;;;15.70;72.50;;;;;;5035601;28;42833;-86
2023/01/20 12:28:04;;;;;;;;;;;15.80;73.40;;;;;;5045667;28;43085;-83
2023/01/20 12:30:35;;;;;;;;;;;15.80;72.60;;;;;;5046297;28;42953;-84
2023/01/20 12:33:00;;;;;;;;;;;15.80;73.10;;;;;;5047110;28;43058;-81
2023/01/20 12:35:27;;;;;;;;;;;15.60;73.50;;;;;;5046357;28;43500;-80
2023/01/20 12:37:59;;;;;;;;;;;15.60;73.70;;;;;;5044700;28;43857;-86
2023/01/20 12:40:46;;;;;;;;;;;15.50;72.90;;;;;;5045741;28;42996;-85
2023/01/20 12:43:12;;;;;;;;;;;15.70;73.10;;;;;;5033354;28;43033;-78
2023/01/20 12:45:46;;;;;;;;;;;15.60;73.90;;;;;;5045405;28;43398;-79
2023/01/20 12:48:24;;;;;;;;;;;15.70;72.90;;;;;;5046139;28;42980;-84
2023/01/20 12:51:13;;;;;;;;;;;15.70;72.80;;;;;;5045924;28;42776;-85
2023/01/20 12:53:38;;;;;;;;;;;15.60;72.70;;;;;;4997972;28;42996;-77
2023/01/20 12:56:04;;;;;;;;;;;15.60;73.70;;;;;;5045025;28;43004;-82
2023/01/20 12:58:38;;;;;;;;;;;15.70;73.80;;;;;;5046108;28;43542;-85
2023/01/20 13:01:22;;;;;;;;;;;15.60;73.00;;;;;;5045918;28;42897;-84
2023/01/20 13:04:06;;;;;;;;;;;15.70;73.10;;;;;;5045249;28;43811;-85
2023/01/20 13:06:34;;;;;;;;;;;15.70;72.70;;;;;;5045811;28;43348;-80
2023/01/20 13:09:18;;;;;;;;;;;15.70;72.90;;;;;;5044645;28;43538;-79
2023/01/20 13:11:54;;;;;;;;;;;15.70;72.70;;;;;;5044551;28;42889;-84
2023/01/20 13:14:23;;;;;;;;;;;15.80;73.40;;;;;;5046021;28;43907;-78
2023/01/20 13:16:52;;;;;;;;;;;15.80;73.50;;;;;;5045612;28;43167;-78
2023/01/20 13:19:29;;;;;;;;;;;15.80;72.50;;;;;;5046014;28;42900;-79
2023/01/20 13:21:58;;;;;;;;;;;15.60;72.70;;;;;;5032231;28;42969;-82
2023/01/20 13:24:28;;;;;;;;;;;15.70;73.30;;;;;;5026729;28;42956;-78
2023/01/20 13:26:58;;;;;;;;;;;15.60;73.70;;;;;;5045288;28;43092;-85
2023/01/20 13:29:35;;;;;;;;;;;15.70;73.10;;;;;;5045031;28;42995;-85
2023/01/20 13:32:01;;;;;;;;;;;15.90;72.60;;;;;;5046452;28;43003;-85
2023/01/20 13:34:26;;;;;;;;;;;15.70;72.70;;;;;;5027031;28;43581;-84
2023/01/20 13:37:01;;;;;;;;;;;15.70;73.10;;;;;;5043590;28;42853;-85
2023/01/20 13:39:44;;;;;;;;;;;15.70;72.50;;;;;;5044717;28;43483;-85
2023/01/20 13:42:28;;;;;;;;;;;15.60;72.60;;;;;;5045050;28;43050;-80
2023/01/20 13:45:11;;;;;;;;;;;15.70;72.50;;;;;;5033697;28;43563;-86
2023/01/20 13:47:58;;;;;;;;;;;15.70;72.60;;;;;;5045145;28;42944;-85
2023/01/20 13:50:37;;;;;;;;;;;15.70;72.40;;;;;;5044067;28;43572;-82
2023/01/20 13:53:08;;;;;;;;;;;15.80;72.30;;;;;;5045530;28;42989;-84
2023/01/20 13:55:40;;;;;;;;;;;15.80;72.30;;;;;;5044481;28;43132;-87
2023/01/20 13:58:11;;;;;;;;;;;15.60;72.20;;;;;;5044781;28;43024;-83
2023/01/20 14:00:36;;;;;;;;;;;15.60;72.20;;;;;;5044931;28;44083;-82
2023/01/20 14:03:10;;;;;;;;;;;15.70;72.70;;;;;;5045020;28;43012;-86
2023/01/20 14:05:36;;;;;;;;;;;15.60;73.20;;;;;;5044673;28;43834;-79
2023/01/20 14:08:02;;;;;;;;;;;15.70;73.40;;;;;;5044391;28;43019;-85
2023/01/20 14:10:28;;;;;;;;;;;15.60;73.40;;;;;;5044462;28;43655;-85
2023/01/20 14:12:55;;;;;;;;;;;15.60;72.90;;;;;;5043506;28;59668;-79
2023/01/20 14:15:25;;;;;;;;;;;15.60;72.90;;;;;;5044312;28;43535;-84
2023/01/20 14:17:54;;;;;;;;;;;15.60;73.60;;;;;;5044383;28;43065;-80
2023/01/20 14:20:22;;;;;;;;;;;15.60;72.50;;;;;;5044359;28;43115;-79
2023/01/20 14:22:48;;;;;;;;;;;15.60;73.20;;;;;;5044336;28;42922;-81
2023/01/20 14:25:21;;;;;;;;;;;15.50;72.90;;;;;;5044626;28;42858;-82
2023/01/20 14:27:47;;;;;;;;;;;15.50;72.70;;;;;;5044016;28;43023;-82
2023/01/20 14:30:15;;;;;;;;;;;15.50;73.40;;;;;;5044978;28;43440;-85
2023/01/20 14:32:41;;;;;;;;;;;15.50;72.70;;;;;;5043633;28;42857;-81
2023/01/20 14:35:13;;;;;;;;;;;15.50;73.20;;;;;;5044198;28;43449;-78
2023/01/20 14:37:39;;;;;;;;;;;15.40;72.60;;;;;;5043843;28;42984;-79
2023/01/20 14:40:14;;;;;;;;;;;15.40;73.40;;;;;;5044911;28;43126;-85